createdAt,value
2022-10-30T00:01:44.843Z,6.82
2022-10-30T00:04:12.551Z,6.80
2022-10-30T00:06:46.090Z,7.38
2022-10-30T00:09:31.040Z,7.57
2022-10-30T00:12:11.774Z,6.88
2022-10-30T00:14:39.510Z,6.88
2022-10-30T00:17:11.309Z,7.63
2022-10-30T00:19:37.991Z,7.80
2022-10-30T00:22:13.921Z,7.70
2022-10-30T00:24:47.497Z,6.90
2022-10-30T00:27:23.151Z,7.68
2022-10-30T00:29:51.831Z,7.03
2022-10-30T00:32:20.636Z,6.57
2022-10-30T00:35:01.359Z,7.30
2022-10-30T00:37:29.063Z,7.25
2022-10-30T00:40:02.066Z,7.68
2022-10-30T00:42:31.754Z,7.45
2022-10-30T00:44:58.640Z,7.18
2022-10-30T00:47:34.127Z,8.02
2022-10-30T00:53:06.795Z,7.22
2022-10-30T00:55:43.838Z,7.45
2022-10-30T00:58:17.423Z,7.10
2022-10-30T01:00:49.543Z,6.95
2022-10-30T01:03:16.798Z,7.22
2022-10-30T01:05:48.125Z,7.32
2022-10-30T01:08:16.869Z,7.38
2022-10-30T01:10:47.522Z,8.07
2022-10-30T01:13:24.893Z,7.70
2022-10-30T01:16:19.341Z,7.70
2022-10-30T01:19:33.782Z,7.00
2022-10-30T01:22:39.220Z,7.35
2022-10-30T01:25:19.338Z,7.03
2022-10-30T01:28:02.491Z,7.18
2022-10-30T01:31:03.357Z,7.57
2022-10-30T01:33:57.381Z,7.20
2022-10-30T01:36:43.204Z,7.32
2022-10-30T01:39:16.228Z,7.57
2022-10-30T01:41:45.495Z,7.63
2022-10-30T01:44:18.987Z,7.10
2022-10-30T01:47:17.065Z,6.68
2022-10-30T01:50:13.412Z,7.47
2022-10-30T01:53:10.283Z,7.65
2022-10-30T01:56:12.442Z,7.25
2022-10-30T01:58:56.496Z,8.15
2022-10-30T02:01:24.603Z,7.32
2022-10-30T02:03:51.861Z,7.35
2022-10-30T02:06:20.975Z,7.25
2022-10-30T02:08:47.707Z,7.13
2022-10-30T02:11:15.857Z,8.45
2022-10-30T02:13:42.890Z,7.95
2022-10-30T02:16:16.790Z,7.07
2022-10-30T02:18:49.356Z,7.63
2022-10-30T02:21:26.949Z,7.88
2022-10-30T02:23:53.675Z,7.43
2022-10-30T02:26:20.416Z,7.68
2022-10-30T02:28:47.191Z,8.68
2022-10-30T02:31:13.953Z,7.38
2022-10-30T02:33:45.539Z,7.88
2022-10-30T02:36:12.276Z,8.25
2022-10-30T02:38:38.896Z,7.93
2022-10-30T02:41:05.724Z,7.63
2022-10-30T02:43:32.431Z,7.10
2022-10-30T02:45:59.384Z,8.35
2022-10-30T02:48:26.106Z,7.55
2022-10-30T02:50:52.863Z,7.55
2022-10-30T02:53:19.538Z,8.23
2022-10-30T02:55:46.228Z,8.02
2022-10-30T02:58:12.964Z,7.82
2022-10-30T03:00:39.600Z,8.35
2022-10-30T03:03:06.244Z,7.53
2022-10-30T03:05:32.987Z,8.13
2022-10-30T03:08:00.025Z,7.53
2022-10-30T03:10:27.016Z,7.78
2022-10-30T03:12:53.741Z,8.43
2022-10-30T03:15:20.512Z,7.45
2022-10-30T03:17:47.752Z,7.50
2022-10-30T03:20:14.509Z,9.00
2022-10-30T03:22:41.472Z,7.57
2022-10-30T03:25:08.560Z,7.15
2022-10-30T03:27:35.295Z,7.90
2022-10-30T03:30:02.017Z,7.70
2022-10-30T03:32:28.682Z,7.85
2022-10-30T03:34:55.515Z,8.18
2022-10-30T03:37:22.204Z,8.02
2022-10-30T03:39:48.827Z,7.57
2022-10-30T03:42:15.538Z,7.88
2022-10-30T03:44:43.643Z,7.88
2022-10-30T03:49:41.913Z,8.00
2022-10-30T03:52:08.546Z,7.82
2022-10-30T03:54:35.308Z,7.80
2022-10-30T03:57:02.030Z,7.95
2022-10-30T03:59:29.705Z,8.00
2022-10-30T04:01:56.694Z,7.45
2022-10-30T04:04:23.783Z,8.60
2022-10-30T04:06:50.442Z,8.18
2022-10-30T04:09:17.159Z,8.23
2022-10-30T04:11:45.067Z,7.53
2022-10-30T04:14:11.689Z,7.47
2022-10-30T04:16:38.357Z,7.35
2022-10-30T04:19:07.171Z,7.80
2022-10-30T04:21:33.899Z,8.55
2022-10-30T04:24:00.550Z,8.20
2022-10-30T04:26:28.118Z,8.10
2022-10-30T04:28:54.746Z,8.50
2022-10-30T04:31:21.416Z,8.20
2022-10-30T04:33:48.172Z,8.15
2022-10-30T04:36:14.931Z,8.75
2022-10-30T04:38:42.682Z,9.02
2022-10-30T04:41:09.444Z,8.30
2022-10-30T04:43:36.100Z,9.00
2022-10-30T04:46:05.941Z,8.95
2022-10-30T04:48:35.023Z,8.73
2022-10-30T04:51:01.760Z,7.93
2022-10-30T04:53:28.405Z,9.70
2022-10-30T04:55:56.205Z,9.15
2022-10-30T04:58:22.898Z,8.43
2022-10-30T05:00:49.588Z,8.27
2022-10-30T05:03:22.181Z,8.82
2022-10-30T05:05:58.016Z,8.50
2022-10-30T05:08:24.958Z,8.20
2022-10-30T05:10:52.331Z,9.13
2022-10-30T05:13:19.001Z,7.85
2022-10-30T05:15:45.763Z,9.23
2022-10-30T05:18:12.701Z,8.90
2022-10-30T05:20:39.380Z,8.45
2022-10-30T05:23:06.118Z,9.27
2022-10-30T05:25:32.910Z,8.55
2022-10-30T05:28:04.768Z,8.80
2022-10-30T05:30:33.277Z,9.15
2022-10-30T05:33:06.137Z,8.88
2022-10-30T05:35:34.480Z,9.00
2022-10-30T05:38:06.754Z,9.77
2022-10-30T05:40:35.336Z,9.35
2022-10-30T05:43:02.381Z,9.07
2022-10-30T05:45:29.137Z,9.82
2022-10-30T05:48:01.392Z,9.35
2022-10-30T05:50:29.078Z,9.70
2022-10-30T05:52:57.077Z,10.77
2022-10-30T05:55:24.295Z,8.77
2022-10-30T05:57:55.586Z,9.27
2022-10-30T06:00:22.618Z,9.18
2022-10-30T06:02:49.413Z,9.60
2022-10-30T06:05:16.173Z,9.93
2022-10-30T06:07:42.902Z,9.23
2022-10-30T06:10:09.701Z,9.45
2022-10-30T06:12:36.373Z,9.45
2022-10-30T06:15:03.179Z,8.88
2022-10-30T06:17:32.279Z,9.52
2022-10-30T06:19:58.975Z,9.75
2022-10-30T06:22:25.690Z,9.27
2022-10-30T06:24:52.352Z,9.65
2022-10-30T06:27:19.034Z,9.68
2022-10-30T06:29:45.701Z,8.77
2022-10-30T06:32:12.432Z,10.32
2022-10-30T06:34:39.191Z,9.63
2022-10-30T06:37:05.968Z,10.10
2022-10-30T06:39:32.654Z,9.10
2022-10-30T06:41:59.396Z,8.82
2022-10-30T06:44:27.088Z,9.25
2022-10-30T06:46:54.443Z,9.00
2022-10-30T06:49:21.253Z,9.10
2022-10-30T06:51:49.692Z,9.70
2022-10-30T06:54:16.499Z,8.93
2022-10-30T06:56:43.145Z,9.82
2022-10-30T06:59:10.884Z,10.75
2022-10-30T07:01:37.685Z,10.60
2022-10-30T07:04:04.545Z,9.82
2022-10-30T07:06:31.238Z,9.65
2022-10-30T07:08:57.893Z,9.35
2022-10-30T07:11:24.735Z,10.02
2022-10-30T07:13:51.495Z,9.23
2022-10-30T07:16:18.301Z,9.80
2022-10-30T07:18:52.938Z,9.85
2022-10-30T07:21:19.666Z,10.30
2022-10-30T07:23:46.302Z,9.77
2022-10-30T07:26:13.061Z,10.27
2022-10-30T07:28:40.812Z,10.40
2022-10-30T07:31:07.591Z,10.07
2022-10-30T07:33:34.332Z,10.73
2022-10-30T07:36:02.119Z,10.55
2022-10-30T07:38:28.833Z,10.80
2022-10-30T07:40:56.936Z,10.40
2022-10-30T07:43:23.635Z,10.70
2022-10-30T07:45:50.358Z,11.30
2022-10-30T07:48:17.608Z,10.90
2022-10-30T07:50:44.358Z,10.20
2022-10-30T07:53:11.077Z,10.60
2022-10-30T07:55:37.723Z,11.15
2022-10-30T07:58:04.779Z,10.13
2022-10-30T08:00:31.512Z,11.18
2022-10-30T08:02:58.762Z,9.75
2022-10-30T08:05:28.908Z,10.10
2022-10-30T08:07:57.551Z,10.20
2022-10-30T08:10:24.574Z,9.93
2022-10-30T08:12:51.205Z,9.27
2022-10-30T08:15:18.104Z,9.98
2022-10-30T08:17:47.356Z,10.18
2022-10-30T08:20:16.684Z,11.15
2022-10-30T08:22:58.217Z,10.23
2022-10-30T08:25:29.333Z,10.23
2022-10-30T08:28:01.072Z,9.77
2022-10-30T08:30:30.657Z,10.25
2022-10-30T08:33:02.651Z,10.05
2022-10-30T08:35:29.614Z,9.88
2022-10-30T08:38:01.001Z,9.75
2022-10-30T08:40:28.102Z,9.98
2022-10-30T08:42:57.137Z,10.13
2022-10-30T08:45:29.826Z,9.48
2022-10-30T08:48:03.352Z,9.80
2022-10-30T08:50:31.251Z,9.55
2022-10-30T08:53:02.661Z,8.82
2022-10-30T08:55:30.943Z,9.05
2022-10-30T08:57:59.037Z,8.98
2022-10-30T09:00:26.150Z,9.10
2022-10-30T09:02:54.282Z,9.07
2022-10-30T09:05:21.402Z,9.43
2022-10-30T09:07:48.398Z,8.88
2022-10-30T09:10:15.533Z,9.40
2022-10-30T09:12:42.994Z,8.80
2022-10-30T09:15:09.831Z,9.50
2022-10-30T09:17:37.539Z,9.02
2022-10-30T09:20:04.749Z,9.23
2022-10-30T09:22:31.500Z,9.65
2022-10-30T09:24:58.234Z,8.18
2022-10-30T09:27:24.951Z,8.82
2022-10-30T09:29:51.730Z,9.68
2022-10-30T09:32:18.388Z,9.38
2022-10-30T09:34:45.268Z,9.02
2022-10-30T09:37:12.958Z,9.82
2022-10-30T09:39:39.718Z,8.82
2022-10-30T09:42:44.204Z,9.27
2022-10-30T09:45:41.432Z,8.95
2022-10-30T09:48:42.457Z,9.10
2022-10-30T09:51:31.045Z,8.80
2022-10-30T09:54:25.928Z,8.63
2022-10-30T09:57:19.583Z,8.40
2022-10-30T09:59:48.994Z,8.27
2022-10-30T10:02:37.298Z,8.70
2022-10-30T10:05:27.724Z,8.60
2022-10-30T10:08:03.931Z,8.52
2022-10-30T10:10:43.623Z,8.52
2022-10-30T10:13:28.957Z,8.88
2022-10-30T10:16:20.196Z,8.77
2022-10-30T10:19:00.730Z,7.82
2022-10-30T10:21:28.996Z,8.90
2022-10-30T10:24:02.329Z,8.43
2022-10-30T10:26:40.810Z,7.95
2022-10-30T10:29:29.296Z,8.35
2022-10-30T10:32:33.312Z,8.30
2022-10-30T10:35:38.469Z,8.60
2022-10-30T10:38:17.117Z,7.97
2022-10-30T10:40:43.750Z,8.27
2022-10-30T10:43:35.373Z,8.68
2022-10-30T10:46:11.141Z,7.47
2022-10-30T10:49:11.780Z,8.00
2022-10-30T10:51:42.179Z,7.32
2022-10-30T10:56:55.725Z,7.75
2022-10-30T10:59:32.809Z,8.18
2022-10-30T11:02:20.610Z,7.40
2022-10-30T11:04:51.850Z,9.00
2022-10-30T11:07:26.817Z,8.25
2022-10-30T11:09:55.005Z,8.05
2022-10-30T11:12:33.747Z,7.43
2022-10-30T11:15:19.718Z,7.43
2022-10-30T11:18:03.651Z,7.93
2022-10-30T11:20:59.129Z,8.35
2022-10-30T11:23:46.867Z,8.45
2022-10-30T11:26:22.277Z,7.47
2022-10-30T11:29:06.660Z,7.78
2022-10-30T11:31:40.730Z,7.63
2022-10-30T11:34:19.451Z,7.00
2022-10-30T11:36:52.121Z,8.23
2022-10-30T11:39:23.202Z,7.50
2022-10-30T11:42:12.248Z,7.63
2022-10-30T11:44:50.561Z,6.90
2022-10-30T11:47:24.495Z,7.30
2022-10-30T11:49:52.903Z,7.20
2022-10-30T11:52:23.595Z,8.25
2022-10-30T11:55:08.390Z,6.97
2022-10-30T11:57:43.189Z,7.32
2022-10-30T12:00:24.629Z,7.32
2022-10-30T12:02:58.123Z,7.45
2022-10-30T12:05:43.787Z,7.13
2022-10-30T12:08:18.576Z,7.22
2022-10-30T12:10:58.487Z,7.68
2022-10-30T12:13:26.882Z,7.20
2022-10-30T12:16:18.333Z,7.47
2022-10-30T12:19:00.627Z,7.75
2022-10-30T12:21:29.516Z,7.07
2022-10-30T12:24:02.342Z,7.55
2022-10-30T12:26:30.551Z,7.68
2022-10-30T12:29:04.576Z,8.45
2022-10-30T12:31:40.107Z,6.85
2022-10-30T12:34:34.812Z,7.03
2022-10-30T12:37:19.591Z,7.10
2022-10-30T12:40:14.473Z,7.47
2022-10-30T12:42:48.231Z,7.43
2022-10-30T12:45:44.936Z,7.47
2022-10-30T12:48:25.613Z,7.43
2022-10-30T12:51:01.328Z,7.00
2022-10-30T12:53:40.019Z,7.50
2022-10-30T12:56:16.278Z,6.45
2022-10-30T12:58:57.839Z,7.43
2022-10-30T13:01:48.303Z,7.55
2022-10-30T13:04:34.491Z,7.55
2022-10-30T13:07:19.866Z,7.30
2022-10-30T13:09:55.941Z,7.50
2022-10-30T13:12:36.614Z,7.50
2022-10-30T13:15:18.282Z,7.90
2022-10-30T13:17:44.920Z,7.60
2022-10-30T13:20:14.436Z,7.55
2022-10-30T13:22:46.054Z,7.63
2022-10-30T13:25:27.401Z,7.38
2022-10-30T13:28:12.743Z,6.75
2022-10-30T13:30:46.253Z,7.57
2022-10-30T13:33:35.125Z,7.03
2022-10-30T13:36:07.833Z,6.93
2022-10-30T13:38:44.438Z,7.70
2022-10-30T13:41:24.235Z,6.90
2022-10-30T13:44:20.378Z,7.03
2022-10-30T13:47:10.731Z,7.68
2022-10-30T13:50:11.307Z,8.02
2022-10-30T13:52:40.803Z,7.55
2022-10-30T13:55:21.570Z,6.90
2022-10-30T13:58:15.958Z,8.00
2022-10-30T14:01:24.061Z,7.30
2022-10-30T14:03:53.742Z,6.88
2022-10-30T14:06:40.775Z,7.22
2022-10-30T14:09:33.171Z,7.15
2022-10-30T14:12:37.533Z,7.93
2022-10-30T14:15:05.244Z,8.00
2022-10-30T14:17:31.985Z,7.70
2022-10-30T14:20:13.721Z,8.25
2022-10-30T14:22:42.221Z,7.97
2022-10-30T14:25:16.318Z,8.30
2022-10-30T14:27:43.526Z,7.57
2022-10-30T14:30:20.541Z,7.97
2022-10-30T14:32:53.743Z,8.30
2022-10-30T14:35:39.537Z,7.43
2022-10-30T14:38:22.840Z,8.40
2022-10-30T14:40:56.395Z,8.90
2022-10-30T14:43:52.073Z,8.75
2022-10-30T14:46:47.493Z,7.18
2022-10-30T14:49:32.453Z,8.40
2022-10-30T14:52:15.693Z,8.00
2022-10-30T14:55:20.411Z,8.55
2022-10-30T14:58:03.655Z,8.65
2022-10-30T15:00:33.380Z,8.43
2022-10-30T15:03:12.154Z,8.48
2022-10-30T15:05:44.901Z,7.57
2022-10-30T15:08:20.324Z,8.52
2022-10-30T15:11:28.630Z,7.88
2022-10-30T15:13:59.563Z,8.23
2022-10-30T15:16:29.159Z,8.40
2022-10-30T15:19:04.451Z,7.63
2022-10-30T15:21:35.109Z,7.68
2022-10-30T15:24:02.507Z,7.32
2022-10-30T15:26:36.779Z,7.68
2022-10-30T15:29:05.547Z,7.97
2022-10-30T15:31:33.251Z,7.30
2022-10-30T15:34:00.007Z,8.25
2022-10-30T15:36:30.936Z,8.73
2022-10-30T15:39:09.674Z,8.10
2022-10-30T15:41:44.760Z,8.10
2022-10-30T15:44:14.816Z,8.05
2022-10-30T15:46:45.581Z,8.75
2022-10-30T15:49:19.078Z,8.90
2022-10-30T15:51:47.328Z,7.90
2022-10-30T15:54:19.290Z,8.10
2022-10-30T15:57:23.995Z,7.97
2022-10-30T15:59:37.264Z,8.30
2022-10-30T16:02:23.137Z,9.55
2022-10-30T16:04:50.422Z,8.30
2022-10-30T16:07:23.022Z,8.55
2022-10-30T16:09:58.612Z,8.45
2022-10-30T16:12:31.556Z,9.55
2022-10-30T16:15:07.367Z,8.70
2022-10-30T16:17:34.773Z,7.90
2022-10-30T16:20:03.170Z,7.90
2022-10-30T16:22:35.653Z,7.32
2022-10-30T16:25:07.353Z,8.05
2022-10-30T16:27:34.053Z,7.53
2022-10-30T16:30:01.575Z,7.20
2022-10-30T16:32:31.186Z,7.15
2022-10-30T16:35:00.156Z,7.38
2022-10-30T16:37:36.573Z,7.32
2022-10-30T16:40:15.650Z,7.80
2022-10-30T16:42:57.973Z,6.90
2022-10-30T16:45:24.985Z,7.18
2022-10-30T16:47:58.385Z,7.28
2022-10-30T16:50:32.669Z,8.30
2022-10-30T16:53:25.455Z,6.90
2022-10-30T16:55:54.073Z,5.60
2022-10-30T16:58:23.688Z,5.15
2022-10-30T17:00:56.030Z,14.60
2022-10-30T17:03:26.953Z,7.57
2022-10-30T17:06:02.888Z,48.83
2022-10-30T17:08:34.513Z,37.22
2022-10-30T17:11:03.741Z,20.17
2022-10-30T17:13:34.899Z,35.97
2022-10-30T17:16:25.801Z,15.40
2022-10-30T17:18:54.591Z,11.68
2022-10-30T17:21:36.815Z,13.45
2022-10-30T17:24:04.029Z,11.68
2022-10-30T17:26:36.842Z,7.70
2022-10-30T17:29:03.571Z,5.57
2022-10-30T17:31:43.026Z,5.28
2022-10-30T17:34:18.339Z,5.10
2022-10-30T17:36:46.594Z,5.35
2022-10-30T17:39:13.834Z,4.68
2022-10-30T17:41:40.782Z,4.18
2022-10-30T17:44:14.921Z,3.90
2022-10-30T17:46:41.585Z,3.95
2022-10-30T17:49:25.276Z,3.45
2022-10-30T17:51:52.991Z,4.18
2022-10-30T17:54:19.949Z,4.13
2022-10-30T17:56:46.627Z,4.40
2022-10-30T17:59:13.403Z,4.65
2022-10-30T18:01:42.947Z,4.65
2022-10-30T18:04:21.143Z,4.70
2022-10-30T18:06:49.018Z,3.78
2022-10-30T18:09:15.936Z,4.22
2022-10-30T18:11:42.795Z,4.05
2022-10-30T18:14:11.586Z,3.90
2022-10-30T18:16:38.947Z,4.25
2022-10-30T18:19:10.910Z,4.55
2022-10-30T18:21:39.374Z,4.63
2022-10-30T18:24:11.418Z,5.53
2022-10-30T18:26:40.807Z,3.97
2022-10-30T18:29:08.881Z,3.55
2022-10-30T18:31:35.797Z,4.45
2022-10-30T18:34:04.072Z,4.53
2022-10-30T18:36:31.085Z,4.35
2022-10-30T18:38:58.352Z,4.57
2022-10-30T18:41:33.481Z,4.25
2022-10-30T18:44:00.291Z,4.30
2022-10-30T18:46:34.336Z,4.05
2022-10-30T18:49:01.139Z,4.25
2022-10-30T18:51:28.826Z,4.35
2022-10-30T18:53:57.000Z,4.93
2022-10-30T18:56:28.545Z,5.15
2022-10-30T18:59:00.764Z,5.22
2022-10-30T19:01:32.189Z,4.60
2022-10-30T19:04:01.133Z,4.15
2022-10-30T19:06:28.433Z,4.50
2022-10-30T19:08:55.270Z,5.03
2022-10-30T19:11:24.899Z,5.28
2022-10-30T19:13:54.285Z,5.10
2022-10-30T19:16:26.322Z,5.93
2022-10-30T19:18:53.346Z,6.65
2022-10-30T19:21:25.645Z,4.55
2022-10-30T19:23:53.835Z,4.28
2022-10-30T19:26:20.586Z,4.55
2022-10-30T19:28:47.293Z,4.55
2022-10-30T19:31:16.317Z,4.50
2022-10-30T19:33:43.485Z,5.25
2022-10-30T19:36:33.908Z,3.95
2022-10-30T19:39:07.605Z,4.00
2022-10-30T19:41:36.245Z,3.58
2022-10-30T19:44:03.008Z,3.58
2022-10-30T19:46:29.787Z,3.90
2022-10-30T19:48:58.044Z,3.88
2022-10-30T19:51:25.482Z,4.22
2022-10-30T19:53:53.757Z,4.13
2022-10-30T19:56:21.008Z,4.28
2022-10-30T19:58:47.744Z,3.60
2022-10-30T20:01:14.828Z,3.85
2022-10-30T20:03:41.857Z,3.88
2022-10-30T20:06:12.179Z,4.20
2022-10-30T20:11:05.928Z,5.00
2022-10-30T20:13:33.496Z,4.90
2022-10-30T20:16:03.345Z,4.30
2022-10-30T20:18:31.964Z,4.83
2022-10-30T20:21:04.601Z,5.22
2022-10-30T20:23:31.371Z,5.25
2022-10-30T20:26:01.520Z,5.28
2022-10-30T20:28:36.329Z,4.45
2022-10-30T20:31:03.702Z,4.35
2022-10-30T20:33:30.632Z,4.10
2022-10-30T20:35:57.352Z,4.32
2022-10-30T20:38:26.665Z,4.22
2022-10-30T20:40:53.821Z,4.70
2022-10-30T20:43:31.689Z,5.10
2022-10-30T20:45:59.297Z,4.90
2022-10-30T20:48:43.268Z,4.45
2022-10-30T20:51:11.397Z,4.82
2022-10-30T20:53:38.155Z,4.40
2022-10-30T20:56:05.182Z,4.30
2022-10-30T20:58:32.924Z,4.22
2022-10-30T21:00:59.726Z,4.97
2022-10-30T21:03:27.201Z,4.63
2022-10-30T21:05:58.697Z,5.15
2022-10-30T21:08:27.058Z,4.70
2022-10-30T21:10:58.960Z,5.07
2022-10-30T21:13:26.266Z,4.47
2022-10-30T21:15:53.020Z,4.82
2022-10-30T21:18:20.205Z,4.95
2022-10-30T21:20:46.888Z,5.82
2022-10-30T21:23:13.614Z,5.70
2022-10-30T21:25:40.369Z,5.35
2022-10-30T21:28:07.083Z,5.78
2022-10-30T21:30:33.796Z,5.53
2022-10-30T21:33:00.679Z,6.45
2022-10-30T21:35:28.118Z,5.10
2022-10-30T21:37:54.806Z,5.10
2022-10-30T21:40:21.519Z,4.38
2022-10-30T21:42:48.906Z,4.13
2022-10-30T21:45:15.940Z,4.03
2022-10-30T21:47:42.662Z,4.10
2022-10-30T21:50:12.310Z,4.00
2022-10-30T21:52:39.747Z,3.90
2022-10-30T21:55:06.720Z,3.90
2022-10-30T21:57:34.695Z,3.58
2022-10-30T22:00:05.520Z,3.60
2022-10-30T22:02:35.400Z,4.28
2022-10-30T22:05:02.280Z,3.75
2022-10-30T22:07:29.001Z,3.70
2022-10-30T22:09:55.678Z,3.88
2022-10-30T22:12:22.439Z,3.42
2022-10-30T22:14:49.109Z,3.63
2022-10-30T22:17:16.785Z,3.88
2022-10-30T22:19:43.436Z,3.92
2022-10-30T22:22:11.173Z,4.55
2022-10-30T22:24:41.131Z,4.07
2022-10-30T22:27:07.787Z,3.63
2022-10-30T22:29:34.471Z,3.83
2022-10-30T22:32:01.109Z,3.95
2022-10-30T22:34:27.748Z,3.83
2022-10-30T22:36:54.436Z,3.97
2022-10-30T22:39:21.227Z,3.40
2022-10-30T22:41:47.992Z,3.63
2022-10-30T22:44:18.545Z,3.75
2022-10-30T22:46:45.986Z,3.58
2022-10-30T22:49:12.622Z,3.80
2022-10-30T22:51:39.881Z,4.00
2022-10-30T22:54:16.254Z,3.72
2022-10-30T22:56:43.038Z,3.50
2022-10-30T22:59:14.255Z,4.03
2022-10-30T23:01:42.740Z,3.90
2022-10-30T23:04:11.821Z,4.07
2022-10-30T23:06:38.794Z,4.20
2022-10-30T23:09:11.531Z,4.13
2022-10-30T23:11:38.199Z,3.88
2022-10-30T23:14:04.862Z,4.32
2022-10-30T23:16:31.568Z,4.68
2022-10-30T23:19:00.846Z,4.28
2022-10-30T23:21:30.456Z,5.03
2022-10-30T23:23:58.482Z,6.00
2022-10-30T23:26:29.286Z,5.63
2022-10-30T23:28:57.090Z,6.05
2022-10-30T23:31:30.142Z,6.00
2022-10-30T23:33:59.145Z,5.82
2022-10-30T23:36:26.567Z,5.90
2022-10-30T23:38:54.708Z,6.75
2022-10-30T23:41:22.782Z,7.45
2022-10-30T23:43:53.403Z,7.20
2022-10-30T23:46:20.100Z,7.45
2022-10-30T23:48:46.901Z,6.78
2022-10-30T23:51:13.601Z,7.15
2022-10-30T23:53:42.671Z,6.80
2022-10-30T23:56:09.494Z,6.53
2022-10-30T23:58:36.965Z,7.50
